Time;durP1;ratioP1;P1;durP2;ratioP2;P2;SDS_P1;SDS_P2;PMS_P1;PMS_P2;Temp;Humidity;BMP_temperature;BMP_pressure;BME280_temperature;BME280_humidity;BME280_pressure;Samples;Min_cycle;Max_cycle;Signal;HPM_P1;HPM_P2
2022/11/16 00:01:11;;;;;;;6.33;4.17;;;11.20;99.90;;;;;;5033422;28;20258;-83
2022/11/16 00:03:37;;;;;;;6.50;4.50;;;11.20;99.90;;;;;;5033556;28;20162;-83
2022/11/16 00:06:05;;;;;;;4.97;4.27;;;11.10;99.90;;;;;;5033505;28;20198;-83
2022/11/16 00:08:33;;;;;;;5.77;4.50;;;11.00;99.90;;;;;;5033455;28;20178;-83
2022/11/16 00:11:13;;;;;;;5.23;4.07;;;11.00;99.90;;;;;;5032069;28;20206;-83
2022/11/16 00:13:41;;;;;;;6.93;4.60;;;11.00;99.90;;;;;;5031895;28;20178;-83
2022/11/16 00:16:11;;;;;;;7.07;5.10;;;11.00;99.90;;;;;;5032086;28;20198;-83
2022/11/16 00:18:37;;;;;;;5.80;4.90;;;10.90;99.90;;;;;;5031003;28;20170;-84
2022/11/16 00:21:04;;;;;;;6.10;4.40;;;10.90;99.90;;;;;;5048585;28;20251;-83
2022/11/16 00:23:30;;;;;;;5.40;4.30;;;10.80;99.90;;;;;;5033000;28;20177;-83
2022/11/16 00:26:01;;;;;;;5.70;4.80;;;10.80;99.90;;;;;;5033170;28;20191;-83
2022/11/16 00:28:27;;;;;;;7.47;5.20;;;10.70;99.90;;;;;;5033191;28;20163;-84
2022/11/16 00:31:00;;;;;;;5.93;4.47;;;10.70;99.90;;;;;;5031484;28;20558;-83
2022/11/16 00:33:26;;;;;;;7.13;5.33;;;10.60;99.90;;;;;;5032615;28;20177;-83
2022/11/16 00:35:52;;;;;;;7.60;5.53;;;10.60;99.90;;;;;;5031384;28;20684;-83
2022/11/16 00:38:17;;;;;;;8.57;5.10;;;10.50;99.90;;;;;;5031680;28;20181;-84
2022/11/16 00:40:43;;;;;;;6.73;5.30;;;10.50;99.90;;;;;;5031331;28;20256;-84
2022/11/16 00:43:08;;;;;;;7.80;5.57;;;10.40;99.90;;;;;;5047870;28;20174;-83
2022/11/16 00:45:34;;;;;;;7.00;5.40;;;10.40;99.90;;;;;;5031553;28;20190;-84
2022/11/16 00:48:00;;;;;;;7.60;6.10;;;10.40;99.90;;;;;;5031317;28;20274;-83
2022/11/16 00:50:25;;;;;;;7.57;5.80;;;10.40;99.90;;;;;;5032853;28;20643;-83
2022/11/16 00:52:52;;;;;;;7.17;5.90;;;10.30;99.90;;;;;;5032783;28;20182;-83
2022/11/16 00:57:51;;;;;;;7.83;6.07;;;10.30;99.90;;;;;;5084417;23;20318;-82
2022/11/16 01:00:18;;;;;;;7.70;6.40;;;10.20;99.90;;;;;;5032815;28;20302;-82
2022/11/16 01:02:43;;;;;;;7.37;5.87;;;10.20;99.90;;;;;;5031713;28;20174;-83
2022/11/16 01:05:09;;;;;;;8.07;6.47;;;10.20;99.90;;;;;;5031600;28;20182;-82
2022/11/16 01:07:36;;;;;;;7.97;6.90;;;10.10;99.90;;;;;;5031276;28;20190;-82
2022/11/16 01:10:13;;;;;;;10.37;6.57;;;10.10;99.90;;;;;;5031729;28;20189;-84
2022/11/16 01:12:39;;;;;;;8.40;6.63;;;10.10;99.90;;;;;;5031838;28;20181;-82
2022/11/16 01:15:09;;;;;;;9.13;6.70;;;10.10;99.90;;;;;;5031654;28;20177;-83
2022/11/16 01:17:39;;;;;;;10.50;6.90;;;10.10;99.90;;;;;;5033067;28;20202;-84
2022/11/16 01:20:07;;;;;;;9.47;7.10;;;10.10;99.90;;;;;;5031271;28;20195;-83
2022/11/16 01:22:37;;;;;;;8.57;6.57;;;10.20;99.90;;;;;;5035674;28;20178;-83
2022/11/16 01:25:04;;;;;;;10.23;7.10;;;10.10;99.90;;;;;;5036199;28;20601;-84
2022/11/16 01:27:29;;;;;;;8.13;6.50;;;10.10;99.90;;;;;;5044569;28;20600;-83
2022/11/16 01:29:55;;;;;;;8.73;7.20;;;10.20;99.90;;;;;;5044423;28;20181;-84
2022/11/16 01:32:20;;;;;;;9.10;6.80;;;10.20;99.90;;;;;;5046955;28;20165;-83
2022/11/16 01:34:46;;;;;;;8.53;7.00;;;10.20;99.90;;;;;;5056479;28;20174;-83
2022/11/16 01:37:12;;;;;;;9.40;6.80;;;10.30;99.90;;;;;;5054999;28;20563;-83
2022/11/16 01:39:37;;;;;;;9.47;6.50;;;10.30;99.90;;;;;;5055264;28;20173;-84
2022/11/16 01:42:03;;;;;;;9.43;7.33;;;10.30;99.90;;;;;;5055327;28;20170;-83
2022/11/16 01:44:32;;;;;;;10.63;7.60;;;10.30;99.90;;;;;;5054710;28;20169;-82
2022/11/16 01:47:05;;;;;;;10.60;7.13;;;10.30;99.90;;;;;;5056029;28;20189;-82
2022/11/16 01:49:35;;;;;;;9.70;7.57;;;10.30;99.90;;;;;;5055001;28;20208;-83
2022/11/16 01:52:09;;;;;;;8.67;6.87;;;10.30;99.90;;;;;;5054851;28;20256;-83
2022/11/16 01:54:38;;;;;;;9.10;6.90;;;10.30;99.90;;;;;;5054837;28;20172;-82
2022/11/16 01:57:12;;;;;;;9.53;7.40;;;10.30;99.90;;;;;;5054758;28;20201;-82
2022/11/16 01:59:39;;;;;;;9.20;7.13;;;10.30;99.90;;;;;;5054720;28;20169;-83
2022/11/16 02:02:04;;;;;;;10.30;7.03;;;10.30;99.90;;;;;;5055022;28;20179;-82
2022/11/16 02:04:30;;;;;;;9.57;7.20;;;10.30;99.90;;;;;;5054097;28;20170;-83
2022/11/16 02:07:14;;;;;;;9.07;7.20;;;10.30;99.90;;;;;;5054456;28;20201;-82
2022/11/16 02:10:12;;;;;;;8.50;6.60;;;10.40;99.90;;;;;;5054267;28;20168;-82
2022/11/16 02:13:02;;;;;;;9.33;6.93;;;10.30;99.90;;;;;;5053666;28;20212;-82
2022/11/16 02:15:34;;;;;;;11.40;7.53;;;10.30;99.90;;;;;;5054578;28;20196;-82
2022/11/16 02:18:28;;;;;;;9.43;7.37;;;10.20;99.90;;;;;;5055572;28;20178;-82
2022/11/16 02:21:11;;;;;;;9.63;7.20;;;10.20;99.90;;;;;;5055737;28;20296;-83
2022/11/16 02:24:09;;;;;;;10.10;7.60;;;10.20;99.90;;;;;;5053974;28;20185;-83
2022/11/16 02:26:53;;;;;;;9.90;7.97;;;10.20;99.90;;;;;;5044162;28;20264;-83
2022/11/16 02:29:36;;;;;;;9.47;7.43;;;10.10;99.90;;;;;;5055379;28;20624;-83
2022/11/16 02:32:37;;;;;;;8.70;7.30;;;10.10;99.90;;;;;;5053678;28;20174;-83
2022/11/16 02:35:22;;;;;;;8.97;7.23;;;10.10;99.90;;;;;;4957660;28;20176;-83
2022/11/16 02:37:54;;;;;;;10.03;7.87;;;10.10;99.90;;;;;;5046426;28;20276;-84
2022/11/16 02:40:22;;;;;;;10.20;7.60;;;10.10;99.90;;;;;;5052692;28;20255;-83
2022/11/16 02:43:02;;;;;;;10.30;7.60;;;10.10;99.90;;;;;;5053941;28;20170;-83
2022/11/16 02:45:31;;;;;;;8.57;7.00;;;10.10;99.90;;;;;;5053631;28;20169;-82
2022/11/16 02:48:02;;;;;;;9.53;7.50;;;10.10;99.90;;;;;;5055241;28;20176;-83
2022/11/16 02:50:30;;;;;;;10.53;7.50;;;10.10;99.90;;;;;;5053844;28;20174;-83
2022/11/16 02:52:55;;;;;;;10.07;7.90;;;10.10;99.90;;;;;;5053378;28;20180;-83
2022/11/16 02:55:22;;;;;;;10.70;7.83;;;10.00;99.90;;;;;;5053599;28;20613;-83
2022/11/16 02:57:59;;;;;;;10.20;7.93;;;10.00;99.90;;;;;;5053325;28;20209;-83
2022/11/16 03:00:34;;;;;;;10.73;7.40;;;9.90;99.90;;;;;;5053503;28;20228;-83
2022/11/16 03:03:06;;;;;;;11.07;8.53;;;10.00;99.90;;;;;;5053098;28;20169;-80
2022/11/16 03:05:46;;;;;;;10.93;8.13;;;9.90;99.90;;;;;;5053114;28;20165;-82
2022/11/16 03:08:11;;;;;;;11.70;8.37;;;9.90;99.90;;;;;;5053132;28;20183;-82
2022/11/16 03:13:30;;;;;;;10.90;8.10;;;10.00;99.90;;;;;;5054477;28;20191;-82
2022/11/16 03:15:56;;;;;;;11.03;8.30;;;9.90;99.90;;;;;;5052850;28;20193;-85
2022/11/16 03:18:27;;;;;;;10.97;8.60;;;9.90;99.90;;;;;;5054432;28;20180;-83
2022/11/16 03:21:03;;;;;;;11.43;8.67;;;9.90;99.90;;;;;;5053204;28;20201;-83
2022/11/16 03:23:29;;;;;;;12.73;8.77;;;9.90;99.90;;;;;;5054064;28;20172;-82
2022/11/16 03:25:56;;;;;;;11.23;8.33;;;9.90;99.90;;;;;;5052744;28;20600;-82
2022/11/16 03:28:38;;;;;;;10.90;8.17;;;9.90;99.90;;;;;;5053072;28;20176;-83
2022/11/16 03:31:12;;;;;;;12.47;8.77;;;9.90;99.90;;;;;;5052961;28;20184;-83
2022/11/16 03:33:59;;;;;;;10.77;8.50;;;9.80;99.90;;;;;;5052722;28;20177;-84
2022/11/16 03:36:33;;;;;;;12.33;8.90;;;9.80;99.90;;;;;;5052771;28;20289;-83
2022/11/16 03:39:08;;;;;;;10.50;8.60;;;9.70;99.90;;;;;;5052651;28;20170;-83
2022/11/16 03:41:38;;;;;;;11.53;8.93;;;9.70;99.90;;;;;;5054165;28;20203;-83
2022/11/16 03:44:04;;;;;;;12.83;8.63;;;9.70;99.90;;;;;;5052625;28;20596;-83
2022/11/16 03:46:30;;;;;;;10.67;9.10;;;9.70;99.90;;;;;;5053690;28;20187;-83
2022/11/16 03:48:57;;;;;;;12.23;9.17;;;9.60;99.90;;;;;;5054140;28;20182;-83
2022/11/16 03:51:24;;;;;;;12.03;9.53;;;9.60;99.90;;;;;;5053786;28;20177;-82
2022/11/16 03:53:49;;;;;;;12.43;9.70;;;9.60;99.90;;;;;;5052222;28;20527;-82
2022/11/16 03:56:15;;;;;;;11.63;9.50;;;9.60;99.90;;;;;;5052045;28;20213;-85
2022/11/16 03:58:40;;;;;;;11.73;9.00;;;9.60;99.90;;;;;;5052721;28;20174;-82
2022/11/16 04:01:06;;;;;;;12.83;9.80;;;9.60;99.90;;;;;;5052249;28;20212;-82
2022/11/16 04:03:31;;;;;;;14.80;9.47;;;9.60;99.90;;;;;;5051953;28;20230;-83
2022/11/16 04:25:32;;;;;;;12.53;9.30;;;9.60;99.90;;;;;;5053461;28;20164;-83
2022/11/16 04:28:13;;;;;;;11.37;8.77;;;9.50;99.90;;;;;;5053349;28;20176;-84
2022/11/16 04:38:55;;;;;;;11.50;9.10;;;9.40;99.90;;;;;;5031768;28;20681;-83
2022/11/16 04:44:04;;;;;;;12.07;9.63;;;9.40;99.90;;;;;;5013134;28;20193;-83
2022/11/16 04:49:14;;;;;;;10.53;8.33;;;9.40;99.90;;;;;;5013173;28;20177;-83
2022/11/16 04:51:39;;;;;;;10.93;8.57;;;9.40;99.90;;;;;;5028340;28;20543;-82
2022/11/16 04:54:05;;;;;;;10.53;7.93;;;9.40;99.90;;;;;;5028165;28;20656;-83
2022/11/16 04:56:30;;;;;;;12.27;8.33;;;9.30;99.90;;;;;;5011365;28;20213;-82
2022/11/16 04:58:56;;;;;;;10.57;7.73;;;9.30;99.90;;;;;;5028315;28;20256;-82
2022/11/16 05:02:06;;;;;;;7.87;6.57;;;9.30;99.90;;;;;;5011601;28;20233;-83
2022/11/16 05:04:07;;;;;;;8.93;6.77;;;9.30;99.90;;;;;;5012029;28;20264;-82
2022/11/16 05:06:33;;;;;;;7.77;6.70;;;9.30;99.90;;;;;;5012940;28;20281;-82
2022/11/16 05:08:58;;;;;;;7.70;6.50;;;9.30;99.90;;;;;;5027995;28;20173;-82
2022/11/16 05:11:24;;;;;;;7.33;6.10;;;9.30;99.90;;;;;;5027980;28;20565;-82
2022/11/16 05:13:49;;;;;;;6.83;5.50;;;9.30;99.90;;;;;;5027615;28;20796;-82
2022/11/16 05:16:15;;;;;;;6.57;5.53;;;9.30;99.90;;;;;;5012699;28;20608;-82
2022/11/16 05:18:40;;;;;;;6.80;5.30;;;9.30;99.90;;;;;;5028000;28;20581;-82
2022/11/16 05:21:06;;;;;;;6.47;5.57;;;9.30;99.90;;;;;;5028097;28;20620;-82
2022/11/16 05:26:15;;;;;;;7.07;5.13;;;9.30;99.90;;;;;;5013056;28;20568;-83
2022/11/16 05:28:41;;;;;;;5.70;4.97;;;9.30;99.90;;;;;;5011300;28;20171;-82
2022/11/16 05:31:07;;;;;;;6.00;4.90;;;9.30;99.90;;;;;;5011361;28;20222;-84
2022/11/16 05:33:32;;;;;;;6.27;5.10;;;9.20;99.90;;;;;;5027779;28;20196;-83
2022/11/16 05:35:58;;;;;;;6.20;5.03;;;9.20;99.90;;;;;;5027577;28;20284;-82
2022/11/16 05:38:23;;;;;;;6.00;5.13;;;9.20;99.90;;;;;;5011633;28;20646;-83
2022/11/16 05:40:49;;;;;;;6.90;5.33;;;9.20;99.90;;;;;;5011830;28;20195;-83
2022/11/16 05:43:14;;;;;;;6.90;5.17;;;9.20;99.90;;;;;;5011361;28;20220;-83
2022/11/16 05:45:41;;;;;;;7.10;5.27;;;9.20;99.90;;;;;;5011516;28;20267;-82
2022/11/16 05:48:06;;;;;;;6.77;5.47;;;9.10;99.90;;;;;;5027910;28;20212;-82
2022/11/16 05:50:32;;;;;;;6.03;5.10;;;9.10;99.90;;;;;;5012548;28;20201;-83
2022/11/16 05:52:57;;;;;;;7.10;5.30;;;9.10;99.90;;;;;;5011362;28;20186;-84
2022/11/16 05:55:23;;;;;;;6.87;5.10;;;9.10;99.90;;;;;;5011592;28;20182;-81
2022/11/16 05:57:48;;;;;;;6.73;5.67;;;9.10;99.90;;;;;;5027758;28;20221;-82
2022/11/16 06:00:14;;;;;;;6.57;5.47;;;9.10;99.90;;;;;;5012393;28;20195;-84
2022/11/16 06:02:40;;;;;;;7.37;5.27;;;9.10;99.90;;;;;;5027812;28;20228;-83
2022/11/16 06:05:06;;;;;;;8.97;5.40;;;9.20;99.90;;;;;;5012058;28;20178;-83
2022/11/16 06:07:32;;;;;;;5.07;4.40;;;9.20;99.90;;;;;;5011128;28;20252;-83
2022/11/16 06:09:58;;;;;;;5.93;4.60;;;9.20;99.90;;;;;;5012235;28;20182;-85
2022/11/16 06:12:24;;;;;;;5.17;4.50;;;9.20;99.90;;;;;;5011170;28;20182;-84
2022/11/16 06:14:49;;;;;;;5.87;4.03;;;9.20;99.90;;;;;;5010979;28;20178;-83
2022/11/16 06:17:15;;;;;;;5.13;4.00;;;9.20;99.90;;;;;;5014063;28;20198;-84
2022/11/16 06:19:40;;;;;;;6.20;4.40;;;9.20;99.90;;;;;;5013703;28;20177;-84
2022/11/16 06:22:06;;;;;;;4.97;4.37;;;9.20;99.90;;;;;;5014095;28;20178;-84
2022/11/16 06:24:32;;;;;;;4.93;3.93;;;9.20;99.90;;;;;;5015455;28;20175;-84
2022/11/16 06:26:57;;;;;;;4.93;4.43;;;9.30;99.90;;;;;;5016370;28;20197;-84
2022/11/16 06:29:23;;;;;;;6.10;3.77;;;9.30;99.90;;;;;;5015838;28;20320;-84
2022/11/16 06:31:49;;;;;;;4.53;3.10;;;9.30;99.90;;;;;;5031121;28;20264;-84
2022/11/16 06:34:14;;;;;;;3.57;3.20;;;9.30;99.90;;;;;;5030737;28;20691;-85
2022/11/16 06:36:40;;;;;;;4.03;3.63;;;9.30;99.90;;;;;;5031021;28;20228;-85
2022/11/16 06:39:05;;;;;;;4.73;3.53;;;9.30;99.90;;;;;;5015442;28;20251;-84
2022/11/16 06:41:31;;;;;;;3.87;3.40;;;9.30;99.90;;;;;;5031728;28;20208;-84
2022/11/16 06:43:57;;;;;;;4.07;3.63;;;9.30;99.90;;;;;;5016097;28;20174;-84
2022/11/16 06:46:23;;;;;;;4.53;3.80;;;9.30;99.90;;;;;;5031179;28;20227;-84
2022/11/16 06:48:49;;;;;;;4.57;3.93;;;9.30;99.90;;;;;;5028846;28;20179;-84
2022/11/16 06:51:15;;;;;;;5.77;4.17;;;9.30;99.90;;;;;;5046465;28;20549;-81
2022/11/16 06:53:40;;;;;;;5.60;4.00;;;9.20;99.90;;;;;;5037750;28;20183;-82
2022/11/16 06:56:07;;;;;;;6.23;4.43;;;9.50;99.90;;;;;;5075251;22;20205;-80
2022/11/16 06:58:33;;;;;;;6.00;4.17;;;9.70;99.90;;;;;;5017151;28;20201;-82
2022/11/16 07:01:10;;;;;;;6.00;4.90;;;9.60;99.90;;;;;;5018540;28;20205;-81
2022/11/16 07:03:36;;;;;;;5.83;5.10;;;9.50;99.90;;;;;;5035344;28;20183;-83
2022/11/16 07:06:10;;;;;;;6.70;5.40;;;9.40;99.90;;;;;;5035149;28;20181;-81
2022/11/16 07:08:36;;;;;;;7.43;5.67;;;9.30;99.90;;;;;;5034850;28;20177;-84
2022/11/16 07:11:04;;;;;;;6.33;5.50;;;9.30;99.90;;;;;;5047112;28;20656;-83
2022/11/16 07:13:34;;;;;;;7.00;5.67;;;9.40;99.90;;;;;;5044097;28;20182;-83
2022/11/16 07:16:05;;;;;;;6.23;4.90;;;9.40;99.90;;;;;;5005875;28;20176;-84
2022/11/16 07:18:33;;;;;;;7.70;5.63;;;9.40;99.90;;;;;;5020505;28;20259;-84
2022/11/16 07:21:03;;;;;;;6.70;5.37;;;9.30;99.90;;;;;;5016433;28;20215;-82
2022/11/16 07:23:29;;;;;;;6.23;5.60;;;9.30;99.90;;;;;;5014863;28;20177;-82
2022/11/16 07:25:59;;;;;;;5.83;5.03;;;9.30;99.90;;;;;;4997087;28;20265;-82
2022/11/16 07:28:24;;;;;;;6.73;5.63;;;9.30;99.90;;;;;;4997796;28;20665;-82
2022/11/16 07:30:50;;;;;;;6.07;5.23;;;9.30;99.90;;;;;;5036176;28;20286;-80
2022/11/16 07:33:16;;;;;;;7.10;5.60;;;9.30;99.90;;;;;;5033398;28;20167;-83
2022/11/16 07:35:41;;;;;;;7.60;5.20;;;9.20;99.90;;;;;;5040817;28;20315;-82
2022/11/16 07:38:07;;;;;;;7.17;5.87;;;9.30;99.90;;;;;;5046410;28;20671;-82
2022/11/16 07:40:32;;;;;;;7.13;5.77;;;9.30;99.90;;;;;;5034050;28;20292;-82
2022/11/16 07:42:58;;;;;;;6.87;6.17;;;9.30;99.90;;;;;;5027547;28;20270;-83
2022/11/16 07:45:23;;;;;;;6.00;5.33;;;9.30;99.90;;;;;;5035282;28;20172;-82
2022/11/16 07:47:51;;;;;;;7.20;5.53;;;9.30;99.90;;;;;;5035851;28;20205;-82
2022/11/16 07:50:16;;;;;;;7.17;5.40;;;9.30;99.90;;;;;;5053381;28;20174;-82
2022/11/16 07:52:45;;;;;;;5.90;5.10;;;9.30;99.90;;;;;;5036146;28;20177;-82
2022/11/16 07:55:11;;;;;;;7.77;6.90;;;9.30;99.90;;;;;;5035228;28;20173;-84
2022/11/16 07:57:37;;;;;;;6.23;5.30;;;9.30;99.90;;;;;;5053192;28;20227;-83
2022/11/16 08:00:05;;;;;;;7.43;5.20;;;9.30;99.90;;;;;;5053222;28;20173;-82
2022/11/16 08:02:31;;;;;;;5.80;5.20;;;9.40;99.90;;;;;;5035568;28;20262;-82
2022/11/16 08:04:57;;;;;;;5.70;4.90;;;9.40;99.90;;;;;;5053089;28;20322;-82
2022/11/16 08:07:22;;;;;;;4.83;4.00;;;9.40;99.90;;;;;;5035410;28;20246;-83
2022/11/16 08:09:48;;;;;;;4.37;3.97;;;9.40;99.90;;;;;;5053371;28;20187;-82
2022/11/16 08:12:15;;;;;;;5.27;4.70;;;9.40;99.90;;;;;;5035254;28;20176;-82
2022/11/16 08:14:41;;;;;;;5.93;5.10;;;9.40;99.90;;;;;;5045848;28;20181;-82
2022/11/16 08:17:07;;;;;;;8.10;6.60;;;9.40;99.90;;;;;;5010122;28;20190;-82
2022/11/16 08:19:33;;;;;;;5.77;4.97;;;9.40;99.90;;;;;;5001419;28;20175;-82
2022/11/16 08:21:59;;;;;;;4.67;4.10;;;9.30;99.90;;;;;;5015737;28;20202;-82
2022/11/16 08:24:24;;;;;;;4.40;3.70;;;9.30;99.90;;;;;;5007186;28;20261;-82
2022/11/16 08:26:50;;;;;;;4.40;3.87;;;9.30;99.90;;;;;;5013306;28;20244;-82
2022/11/16 08:29:15;;;;;;;4.20;3.80;;;9.30;99.90;;;;;;4995380;28;20549;-82
2022/11/16 08:31:43;;;;;;;4.63;4.20;;;9.30;99.90;;;;;;4995658;28;20184;-82
2022/11/16 08:34:08;;;;;;;3.90;3.40;;;9.30;99.90;;;;;;5012712;28;20181;-82
2022/11/16 08:36:34;;;;;;;3.90;3.50;;;9.40;99.90;;;;;;5012965;28;20251;-82
2022/11/16 08:39:00;;;;;;;4.00;3.60;;;9.40;99.90;;;;;;4994677;28;20260;-82
2022/11/16 08:41:26;;;;;;;4.00;3.60;;;9.40;99.90;;;;;;5012828;28;20204;-82
2022/11/16 08:43:52;;;;;;;3.97;3.57;;;9.40;99.90;;;;;;4995239;28;20174;-82
2022/11/16 08:46:19;;;;;;;4.00;3.60;;;9.40;99.90;;;;;;5027053;28;20188;-82
2022/11/16 08:48:45;;;;;;;4.63;3.53;;;9.40;99.90;;;;;;5018758;28;20172;-82
2022/11/16 08:51:13;;;;;;;4.20;3.80;;;9.40;99.90;;;;;;4998737;28;20211;-82
2022/11/16 08:53:39;;;;;;;4.27;3.80;;;9.50;99.90;;;;;;5013685;28;20220;-83
2022/11/16 08:56:07;;;;;;;6.00;3.70;;;9.50;99.90;;;;;;5014393;28;20205;-82
2022/11/16 08:58:34;;;;;;;4.20;3.80;;;9.50;99.90;;;;;;5014833;28;20205;-82
2022/11/16 09:01:06;;;;;;;4.20;3.70;;;9.60;99.90;;;;;;5019236;28;20212;-82
2022/11/16 09:03:32;;;;;;;4.47;4.00;;;9.60;99.90;;;;;;5033528;28;20185;-80
2022/11/16 09:05:58;;;;;;;4.27;3.83;;;9.80;99.90;;;;;;5011886;28;20186;-82
2022/11/16 09:08:24;;;;;;;4.63;4.03;;;9.90;99.90;;;;;;5014737;28;20213;-82
2022/11/16 09:10:49;;;;;;;4.67;3.70;;;9.90;99.90;;;;;;5014618;28;20189;-82
2022/11/16 09:13:15;;;;;;;4.93;3.73;;;9.90;99.90;;;;;;5036261;28;20259;-82
2022/11/16 09:15:40;;;;;;;5.47;4.23;;;10.00;99.90;;;;;;5048485;28;20242;-82
2022/11/16 09:18:06;;;;;;;4.80;3.80;;;10.00;99.90;;;;;;5014657;28;20206;-82
2022/11/16 09:20:32;;;;;;;4.70;4.20;;;10.10;99.90;;;;;;5032417;28;20224;-82
2022/11/16 09:22:57;;;;;;;6.00;4.40;;;10.10;99.90;;;;;;5014310;28;20173;-82
2022/11/16 09:25:23;;;;;;;4.47;4.07;;;10.10;99.90;;;;;;5032073;28;20174;-82
2022/11/16 09:27:48;;;;;;;5.13;4.30;;;10.10;99.90;;;;;;5014521;28;20194;-83
2022/11/16 09:30:15;;;;;;;4.20;3.77;;;10.20;99.90;;;;;;5032235;28;20178;-82
2022/11/16 09:32:40;;;;;;;4.47;4.07;;;10.10;99.90;;;;;;5031764;28;20174;-84
2022/11/16 09:35:06;;;;;;;4.73;4.00;;;10.20;99.90;;;;;;5014183;28;20320;-81
2022/11/16 09:37:32;;;;;;;5.10;4.20;;;10.20;99.90;;;;;;5014114;28;20237;-82
2022/11/16 09:39:57;;;;;;;4.87;4.20;;;10.20;99.90;;;;;;5031649;28;20216;-82
2022/11/16 09:42:41;;;;;;;5.20;4.70;;;10.20;99.90;;;;;;5032165;28;20676;-81
2022/11/16 09:45:23;;;;;;;5.07;4.57;;;10.30;99.90;;;;;;5014280;28;20181;-82
2022/11/16 09:47:56;;;;;;;4.97;4.47;;;10.30;99.90;;;;;;5031903;28;20200;-81
2022/11/16 09:50:33;;;;;;;6.43;4.70;;;10.30;99.90;;;;;;5033775;28;20202;-83
2022/11/16 09:53:13;;;;;;;5.20;4.60;;;10.30;99.90;;;;;;5035451;28;20180;-83
2022/11/16 09:55:49;;;;;;;5.70;4.97;;;10.40;99.90;;;;;;5032652;28;20180;-83
2022/11/16 09:58:26;;;;;;;5.30;4.80;;;10.50;99.90;;;;;;5035210;28;20217;-84
2022/11/16 10:01:06;;;;;;;5.17;4.67;;;10.60;99.90;;;;;;5035242;28;20612;-84
2022/11/16 10:03:39;;;;;;;4.87;4.37;;;10.70;99.90;;;;;;5017509;28;20174;-84
2022/11/16 10:06:14;;;;;;;4.90;4.40;;;10.80;99.90;;;;;;5017309;28;20176;-84
2022/11/16 10:08:48;;;;;;;5.30;4.70;;;11.00;99.90;;;;;;5035107;28;20173;-84
2022/11/16 10:11:31;;;;;;;4.70;4.10;;;11.30;99.90;;;;;;5035114;28;20398;-84
2022/11/16 10:14:16;;;;;;;5.00;4.50;;;11.60;99.90;;;;;;5016264;28;20240;-87
2022/11/16 10:17:06;;;;;;;4.70;4.20;;;11.80;99.90;;;;;;5017544;28;20202;-80
2022/11/16 10:19:54;;;;;;;4.73;4.13;;;12.00;99.90;;;;;;5017710;28;20178;-84
2022/11/16 10:22:45;;;;;;;4.83;4.17;;;12.00;99.90;;;;;;5035225;28;20220;-83
2022/11/16 10:25:17;;;;;;;4.60;3.90;;;12.10;99.90;;;;;;5032981;28;20249;-84
2022/11/16 10:28:01;;;;;;;5.37;3.87;;;12.20;99.90;;;;;;5016631;28;20610;-82
2022/11/16 10:30:27;;;;;;;4.23;3.83;;;12.40;99.90;;;;;;5031954;28;20192;-83
2022/11/16 10:33:04;;;;;;;4.27;3.80;;;12.60;99.90;;;;;;5034222;28;20181;-82
2022/11/16 10:35:44;;;;;;;3.83;3.47;;;12.70;99.90;;;;;;5035160;28;20544;-82
2022/11/16 10:38:13;;;;;;;5.23;4.00;;;12.70;99.90;;;;;;5016374;28;20213;-82
2022/11/16 10:40:40;;;;;;;3.57;3.27;;;12.80;99.90;;;;;;5017470;28;20209;-83
2022/11/16 10:43:13;;;;;;;3.80;3.40;;;12.50;99.90;;;;;;5018051;28;20208;-82
2022/11/16 10:45:54;;;;;;;4.60;3.60;;;12.30;99.90;;;;;;5018152;28;20181;-81
2022/11/16 10:49:10;;;;;;;3.93;3.20;;;12.00;99.90;;;;;;5033764;28;20198;-83
2022/11/16 10:51:36;;;;;;;6.50;4.17;;;11.80;99.90;;;;;;4957556;28;20187;-83
2022/11/16 10:54:11;;;;;;;4.33;3.93;;;11.50;99.90;;;;;;4998004;28;20282;-81
2022/11/16 10:56:40;;;;;;;5.90;4.00;;;11.40;99.90;;;;;;5014330;28;20301;-81
2022/11/16 10:59:07;;;;;;;4.80;4.30;;;11.40;99.90;;;;;;5014295;28;20228;-81
2022/11/16 11:01:36;;;;;;;5.43;4.20;;;11.30;99.90;;;;;;5014185;28;20293;-83
2022/11/16 11:04:17;;;;;;;5.47;4.47;;;11.30;99.90;;;;;;4997800;28;20171;-80
2022/11/16 11:06:44;;;;;;;8.20;4.60;;;11.30;99.90;;;;;;5022603;28;20221;-84
2022/11/16 11:09:14;;;;;;;6.43;4.23;;;11.40;99.90;;;;;;5017090;28;20254;-83
2022/11/16 11:14:23;;;;;;;4.83;3.80;;;11.90;99.90;;;;;;5034838;28;20668;-84
2022/11/16 11:16:52;;;;;;;3.97;3.57;;;12.20;99.90;;;;;;5034231;28;20194;-83
2022/11/16 11:19:27;;;;;;;3.83;3.40;;;12.80;99.90;;;;;;5016774;28;20275;-83
2022/11/16 11:21:59;;;;;;;3.90;3.20;;;13.30;99.90;;;;;;5034212;28;20266;-83
2022/11/16 11:24:27;;;;;;;3.90;3.23;;;13.30;99.90;;;;;;5032668;28;20170;-84
2022/11/16 11:26:56;;;;;;;5.23;3.20;;;13.50;99.90;;;;;;5020094;28;20652;-83
2022/11/16 11:29:28;;;;;;;4.60;3.00;;;13.50;99.90;;;;;;5037598;28;20174;-83
2022/11/16 11:31:58;;;;;;;3.53;2.60;;;13.60;99.90;;;;;;5017421;28;20875;-83
2022/11/16 11:34:27;;;;;;;3.30;3.00;;;13.80;99.90;;;;;;5017360;28;20186;-83
2022/11/16 11:36:58;;;;;;;4.27;3.00;;;13.50;99.90;;;;;;5016339;28;20317;-83
2022/11/16 11:39:23;;;;;;;5.00;3.13;;;13.70;99.90;;;;;;5016574;28;20447;-84
2022/11/16 11:42:11;;;;;;;2.83;2.60;;;14.00;99.90;;;;;;5015509;28;20210;-83
2022/11/16 11:44:46;;;;;;;2.87;2.67;;;14.20;99.90;;;;;;5033947;28;20174;-82
2022/11/16 11:47:43;;;;;;;4.53;2.30;;;14.10;99.90;;;;;;5016106;28;20189;-83
2022/11/16 11:50:15;;;;;;;2.57;2.10;;;14.10;99.90;;;;;;5034096;28;20228;-82
2022/11/16 11:53:01;;;;;;;2.47;2.23;;;14.40;99.90;;;;;;5015878;28;20171;-83
2022/11/16 11:55:27;;;;;;;2.80;2.10;;;14.40;99.90;;;;;;5033675;28;20166;-82
2022/11/16 11:57:55;;;;;;;3.87;2.20;;;14.30;99.90;;;;;;5032932;28;20210;-83
2022/11/16 12:00:21;;;;;;;3.53;2.00;;;14.40;99.90;;;;;;5027091;28;20201;-83
2022/11/16 12:03:21;;;;;;;2.40;1.90;;;13.90;99.90;;;;;;5035437;28;20252;-83
2022/11/16 12:05:49;;;;;;;4.10;2.47;;;13.40;99.90;;;;;;5021607;28;20245;-82
2022/11/16 12:08:55;;;;;;;2.90;1.70;;;12.90;99.90;;;;;;5040177;28;20190;-83
2022/11/16 12:11:41;;;;;;;4.83;2.10;;;12.80;99.90;;;;;;4995851;28;20175;-83
2022/11/16 12:14:29;;;;;;;3.63;1.80;;;12.90;99.90;;;;;;5013700;28;20171;-83
2022/11/16 12:17:30;;;;;;;2.10;1.80;;;12.80;99.90;;;;;;5000801;28;20203;-85
2022/11/16 12:20:15;;;;;;;3.07;1.87;;;12.70;99.90;;;;;;5012964;28;20182;-84
2022/11/16 12:22:50;;;;;;;3.10;1.90;;;12.60;99.90;;;;;;4996641;28;20649;-84
2022/11/16 12:25:18;;;;;;;2.17;1.50;;;12.80;99.90;;;;;;5013964;28;20178;-83
2022/11/16 12:28:03;;;;;;;2.77;1.60;;;13.10;99.90;;;;;;5014033;28;20754;-84
2022/11/16 12:30:32;;;;;;;1.57;1.33;;;13.70;99.90;;;;;;4996061;28;20646;-83
2022/11/16 12:33:12;;;;;;;2.50;1.20;;;13.90;99.90;;;;;;5022725;28;20178;-83
2022/11/16 12:35:58;;;;;;;1.87;1.33;;;13.90;99.90;;;;;;5032999;28;20178;-84
2022/11/16 12:38:39;;;;;;;7.90;2.37;;;14.20;99.90;;;;;;5014947;28;20202;-82
2022/11/16 12:41:10;;;;;;;3.90;1.57;;;14.90;99.90;;;;;;5033383;28;20225;-80
2022/11/16 12:43:57;;;;;;;1.93;1.57;;;15.10;99.90;;;;;;5033274;28;20630;-81
2022/11/16 12:46:33;;;;;;;2.87;1.60;;;14.70;99.90;;;;;;5015338;28;20680;-82
2022/11/16 12:49:36;;;;;;;6.57;1.73;;;14.10;99.90;;;;;;5033026;28;20177;-82
2022/11/16 12:52:26;;;;;;;2.53;1.50;;;13.70;99.90;;;;;;5015315;28;20173;-81
2022/11/16 12:55:14;;;;;;;2.80;1.50;;;13.50;99.90;;;;;;5034971;28;20209;-81
2022/11/16 12:57:56;;;;;;;2.43;1.50;;;14.00;99.90;;;;;;5089989;23;20230;-82
2022/11/16 13:00:22;;;;;;;2.23;1.67;;;14.20;99.90;;;;;;5034817;28;20610;-85
2022/11/16 13:03:06;;;;;;;2.73;1.60;;;14.50;99.90;;;;;;5036283;28;20636;-83
2022/11/16 13:05:45;;;;;;;2.70;1.70;;;14.60;99.90;;;;;;5036123;28;20178;-85
2022/11/16 13:08:38;;;;;;;2.67;1.77;;;14.40;99.90;;;;;;5034306;28;20675;-84
2022/11/16 13:11:29;;;;;;;4.60;1.70;;;14.10;99.90;;;;;;5034913;28;20166;-82
2022/11/16 13:13:59;;;;;;;2.67;1.47;;;13.70;99.90;;;;;;5035106;28;20179;-83
2022/11/16 13:16:26;;;;;;;4.10;1.40;;;13.50;99.90;;;;;;5035287;28;20228;-83
2022/11/16 13:18:53;;;;;;;5.80;1.60;;;13.90;99.90;;;;;;5025650;28;20273;-84
2022/11/16 13:21:33;;;;;;;3.23;1.20;;;14.20;99.90;;;;;;5031852;28;20726;-87
2022/11/16 13:24:01;;;;;;;2.90;1.30;;;14.20;99.90;;;;;;5040960;28;20254;-84
2022/11/16 13:27:11;;;;;;;3.23;1.13;;;13.90;99.90;;;;;;5035283;28;20181;-85
2022/11/16 13:30:11;;;;;;;3.47;1.30;;;14.10;99.90;;;;;;5010942;28;20245;-84
2022/11/16 13:33:02;;;;;;;2.37;1.20;;;14.10;99.90;;;;;;5008002;28;20554;-84
2022/11/16 13:35:27;;;;;;;3.83;1.43;;;13.80;99.90;;;;;;5030677;28;20656;-78
2022/11/16 13:37:53;;;;;;;2.47;1.43;;;13.70;99.90;;;;;;5039389;28;20196;-85
2022/11/16 13:40:23;;;;;;;4.10;2.27;;;13.50;99.90;;;;;;5028542;28;20208;-84
2022/11/16 13:43:10;;;;;;;4.23;1.37;;;13.30;99.90;;;;;;5041340;28;20182;-83
2022/11/16 13:45:41;;;;;;;6.07;1.37;;;13.00;99.90;;;;;;5058181;28;20247;-84
2022/11/16 13:48:19;;;;;;;3.27;1.20;;;13.00;99.90;;;;;;5057827;28;20185;-83
2022/11/16 13:50:54;;;;;;;4.27;1.37;;;13.00;99.90;;;;;;5057705;28;20168;-83
2022/11/16 13:53:29;;;;;;;4.67;1.37;;;12.90;99.90;;;;;;5038951;28;20173;-82
2022/11/16 13:56:07;;;;;;;3.43;1.40;;;12.70;99.90;;;;;;5039469;28;20174;-86